createdAt,value
2023-02-19T00:00:00.308Z,31.40
2023-02-19T00:00:32.164Z,30.03
2023-02-19T00:01:15.846Z,30.70
2023-02-19T00:01:48.087Z,30.47
2023-02-19T00:02:21.248Z,30.60
2023-02-19T00:02:53.043Z,30.67
2023-02-19T00:03:25.088Z,32.17
2023-02-19T00:04:02.360Z,31.30
2023-02-19T00:04:34.170Z,30.27
2023-02-19T00:05:06.309Z,30.80
2023-02-19T00:05:38.156Z,30.13
2023-02-19T00:06:11.563Z,30.50
2023-02-19T00:06:45.017Z,30.33
2023-02-19T00:07:18.094Z,31.47
2023-02-19T00:07:50.486Z,31.40
2023-02-19T00:08:22.339Z,30.37
2023-02-19T00:08:54.595Z,30.27
2023-02-19T00:09:26.458Z,30.43
2023-02-19T00:09:58.260Z,31.10
2023-02-19T00:10:30.240Z,31.63
2023-02-19T00:11:07.937Z,30.87
2023-02-19T00:11:40.669Z,31.07
2023-02-19T00:12:12.574Z,30.23
2023-02-19T00:12:44.852Z,29.83
2023-02-19T00:13:16.741Z,29.57
2023-02-19T00:13:51.271Z,29.90
2023-02-19T00:14:23.234Z,30.23
2023-02-19T00:14:57.180Z,28.67
2023-02-19T00:15:30.624Z,29.53
2023-02-19T00:16:10.685Z,29.60
2023-02-19T00:16:42.654Z,30.00
2023-02-19T00:17:14.473Z,29.93
2023-02-19T00:17:46.254Z,29.70
2023-02-19T00:18:18.273Z,31.03
2023-02-19T00:18:51.201Z,29.77
2023-02-19T00:19:23.281Z,29.40
2023-02-19T00:19:55.075Z,29.77
2023-02-19T00:20:26.993Z,29.90
2023-02-19T00:20:58.802Z,30.30
2023-02-19T00:21:31.129Z,29.93
2023-02-19T00:22:02.927Z,30.07
2023-02-19T00:22:34.671Z,28.37
2023-02-19T00:23:06.547Z,29.53
2023-02-19T00:23:38.390Z,29.93
2023-02-19T00:24:12.600Z,30.87
2023-02-19T00:24:44.477Z,30.70
2023-02-19T00:25:16.322Z,29.13
2023-02-19T00:25:48.118Z,29.43
2023-02-19T00:26:20.153Z,29.03
2023-02-19T00:26:51.996Z,28.90
2023-02-19T00:27:23.770Z,30.50
2023-02-19T00:27:55.643Z,29.03
2023-02-19T00:28:27.535Z,29.23
2023-02-19T00:29:01.045Z,29.73
2023-02-19T00:29:32.933Z,29.33
2023-02-19T00:30:04.965Z,29.93
2023-02-19T00:30:36.868Z,29.33
2023-02-19T00:31:13.450Z,29.73
2023-02-19T00:31:47.353Z,28.23
2023-02-19T00:32:19.258Z,28.60
2023-02-19T00:32:54.442Z,29.77
2023-02-19T00:33:26.362Z,29.00
2023-02-19T00:34:00.892Z,28.70
2023-02-19T00:34:32.746Z,29.63
2023-02-19T00:35:04.657Z,29.10
2023-02-19T00:35:36.573Z,29.00
2023-02-19T00:36:09.862Z,29.53
2023-02-19T00:36:43.227Z,29.50
2023-02-19T00:37:15.021Z,29.97
2023-02-19T00:37:46.873Z,30.47
2023-02-19T00:38:18.641Z,29.07
2023-02-19T00:38:51.144Z,28.53
2023-02-19T00:39:23.095Z,27.70
2023-02-19T00:39:54.875Z,27.70
2023-02-19T00:40:26.761Z,28.27
2023-02-19T00:41:02.345Z,28.93
2023-02-19T00:41:35.024Z,28.87
2023-02-19T00:42:06.831Z,30.00
2023-02-19T00:42:38.635Z,31.63
2023-02-19T00:43:10.360Z,30.40
2023-02-19T00:43:42.096Z,30.00
2023-02-19T00:44:15.299Z,32.27
2023-02-19T00:44:47.136Z,32.43
2023-02-19T00:45:19.512Z,32.77
2023-02-19T00:45:51.265Z,32.30
2023-02-19T00:46:39.544Z,31.60
2023-02-19T00:47:11.368Z,31.10
2023-02-19T00:47:43.197Z,30.00
2023-02-19T00:48:14.980Z,30.67
2023-02-19T00:48:47.458Z,31.07
2023-02-19T00:49:21.960Z,30.50
2023-02-19T00:49:53.721Z,30.27
2023-02-19T00:50:25.524Z,28.57
2023-02-19T00:50:57.294Z,28.30
2023-02-19T00:51:32.928Z,28.23
2023-02-19T00:52:04.888Z,27.43
2023-02-19T00:52:37.453Z,28.73
2023-02-19T00:53:09.305Z,28.30
2023-02-19T00:53:41.903Z,28.47
2023-02-19T00:54:14.516Z,28.83
2023-02-19T00:54:46.361Z,28.67
2023-02-19T00:55:18.288Z,28.83
2023-02-19T00:55:50.037Z,27.73
2023-02-19T00:56:22.132Z,28.40
2023-02-19T00:56:53.985Z,27.33
2023-02-19T00:57:25.818Z,27.50
2023-02-19T00:57:57.700Z,29.47
2023-02-19T00:58:29.465Z,27.97
2023-02-19T00:59:01.239Z,27.63
2023-02-19T00:59:33.055Z,28.53
2023-02-19T01:00:06.802Z,27.60
2023-02-19T01:00:39.200Z,27.67
2023-02-19T01:01:11.968Z,26.97
2023-02-19T01:01:45.099Z,26.63
2023-02-19T01:02:16.933Z,27.43
2023-02-19T01:02:48.778Z,27.07
2023-02-19T01:03:22.703Z,26.43
2023-02-19T01:03:54.547Z,27.57
2023-02-19T01:04:26.398Z,28.03
2023-02-19T01:04:58.265Z,27.93
2023-02-19T01:05:30.045Z,27.13
2023-02-19T01:06:02.174Z,27.43
2023-02-19T01:06:34.849Z,27.10
2023-02-19T01:07:07.930Z,27.43
2023-02-19T01:07:40.854Z,26.93
2023-02-19T01:08:12.623Z,26.43
2023-02-19T01:08:44.647Z,26.57
2023-02-19T01:09:17.480Z,26.50
2023-02-19T01:09:49.694Z,25.20
2023-02-19T01:10:21.513Z,26.00
2023-02-19T01:10:53.393Z,27.93
2023-02-19T01:11:25.663Z,29.33
2023-02-19T01:11:57.440Z,28.83
2023-02-19T01:12:29.392Z,27.57
2023-02-19T01:13:01.257Z,29.47
2023-02-19T01:13:34.176Z,30.07
2023-02-19T01:14:06.020Z,30.97
2023-02-19T01:14:37.872Z,30.53
2023-02-19T01:15:09.829Z,29.80
2023-02-19T01:15:41.665Z,30.63
2023-02-19T01:16:18.957Z,30.80
2023-02-19T01:16:50.881Z,29.23
2023-02-19T01:17:22.972Z,28.20
2023-02-19T01:17:54.828Z,30.10
2023-02-19T01:18:27.161Z,31.10
2023-02-19T01:18:59.664Z,30.87
2023-02-19T01:19:31.480Z,30.30
2023-02-19T01:20:04.035Z,30.33
2023-02-19T01:20:39.193Z,31.93
2023-02-19T01:21:30.817Z,31.37
2023-02-19T01:22:02.573Z,30.97
2023-02-19T01:22:34.402Z,31.07
2023-02-19T01:23:06.381Z,30.17
2023-02-19T01:23:38.339Z,29.30
2023-02-19T01:24:10.252Z,30.17
2023-02-19T01:24:42.132Z,30.03
2023-02-19T01:25:13.950Z,31.87
2023-02-19T01:25:45.791Z,30.07
2023-02-19T01:26:30.456Z,29.90
2023-02-19T01:27:02.218Z,30.63
2023-02-19T01:27:34.046Z,30.50
2023-02-19T01:28:06.395Z,29.93
2023-02-19T01:28:38.178Z,28.40
2023-02-19T01:29:10.068Z,27.50
2023-02-19T01:29:45.607Z,27.43
2023-02-19T01:30:17.865Z,27.10
2023-02-19T01:30:49.653Z,26.73
2023-02-19T01:31:24.121Z,26.93
2023-02-19T01:31:56.322Z,25.97
2023-02-19T01:32:28.292Z,25.70
2023-02-19T01:33:00.027Z,26.10
2023-02-19T01:33:31.968Z,25.83
2023-02-19T01:34:04.700Z,23.67
2023-02-19T01:34:36.523Z,25.10
2023-02-19T01:35:08.869Z,25.20
2023-02-19T01:35:40.952Z,24.73
2023-02-19T01:36:14.437Z,24.83
2023-02-19T01:36:46.248Z,24.03
2023-02-19T01:37:18.205Z,24.50
2023-02-19T01:37:50.058Z,24.87
2023-02-19T01:38:21.928Z,24.80
2023-02-19T01:38:54.140Z,24.43
2023-02-19T01:39:25.867Z,24.77
2023-02-19T01:39:57.780Z,23.60
2023-02-19T01:40:29.790Z,23.37
2023-02-19T01:41:04.154Z,22.87
2023-02-19T01:41:39.584Z,23.83
2023-02-19T01:42:15.206Z,23.10
2023-02-19T01:42:47.091Z,23.60
2023-02-19T01:43:18.851Z,23.93
2023-02-19T01:43:59.316Z,23.33
2023-02-19T01:44:30.993Z,23.00
2023-02-19T01:45:23.276Z,23.33
2023-02-19T01:45:55.648Z,23.00
2023-02-19T01:46:36.664Z,22.20
2023-02-19T01:47:08.589Z,22.80
2023-02-19T01:47:40.670Z,23.00
2023-02-19T01:48:45.382Z,21.17
2023-02-19T01:49:48.975Z,21.50
2023-02-19T01:50:21.149Z,25.27
2023-02-19T01:50:58.733Z,26.07
2023-02-19T01:51:34.854Z,26.07
2023-02-19T01:52:13.782Z,25.70
2023-02-19T01:52:45.942Z,26.70
2023-02-19T01:53:24.087Z,26.27
2023-02-19T01:54:00.928Z,25.20
2023-02-19T01:54:40.875Z,25.23
2023-02-19T01:55:14.197Z,24.70
2023-02-19T01:55:50.212Z,23.80
2023-02-19T01:56:25.779Z,23.00
2023-02-19T01:56:59.936Z,22.63
2023-02-19T01:57:38.561Z,23.53
2023-02-19T01:58:10.951Z,22.10
2023-02-19T01:58:43.833Z,22.13
2023-02-19T01:59:17.288Z,22.63
2023-02-19T01:59:55.384Z,23.23
2023-02-19T02:00:27.676Z,23.03
2023-02-19T02:01:03.126Z,22.83
2023-02-19T02:01:38.784Z,23.17
2023-02-19T02:02:10.993Z,21.60
2023-02-19T02:02:48.372Z,22.47
2023-02-19T02:03:21.140Z,22.53
2023-02-19T02:03:53.520Z,22.27
2023-02-19T02:04:26.677Z,21.70
2023-02-19T02:05:00.813Z,22.60
2023-02-19T02:06:16.888Z,22.30
2023-02-19T02:06:53.354Z,21.07
2023-02-19T02:07:43.943Z,20.30
2023-02-19T02:08:36.560Z,20.90
2023-02-19T02:09:27.527Z,21.23
2023-02-19T02:10:18.202Z,21.13
2023-02-19T02:10:52.232Z,21.47
2023-02-19T02:11:24.661Z,20.17
2023-02-19T02:11:56.568Z,20.77
2023-02-19T02:12:28.372Z,21.20
2023-02-19T02:13:00.267Z,21.53
2023-02-19T02:13:35.601Z,20.13
2023-02-19T02:14:07.971Z,20.83
2023-02-19T02:14:44.434Z,21.13
2023-02-19T02:15:17.637Z,20.37
2023-02-19T02:16:20.110Z,20.73
2023-02-19T02:16:55.661Z,20.73
2023-02-19T02:17:44.838Z,20.53
2023-02-19T02:20:07.411Z,20.97
2023-02-19T02:20:51.724Z,21.57
2023-02-19T02:21:56.595Z,19.70
2023-02-19T02:22:37.928Z,20.97
2023-02-19T02:23:41.791Z,20.00
2023-02-19T02:24:31.796Z,21.00
2023-02-19T02:25:06.352Z,21.07
2023-02-19T02:25:38.064Z,20.07
2023-02-19T02:26:33.088Z,20.93
2023-02-19T02:27:23.133Z,20.27
2023-02-19T02:28:53.879Z,19.47
2023-02-19T02:29:56.168Z,20.07
2023-02-19T02:30:54.990Z,20.37
2023-02-19T02:31:35.287Z,19.40
2023-02-19T02:32:13.829Z,20.43
2023-02-19T02:33:25.950Z,19.87
2023-02-19T02:36:09.363Z,19.27
2023-02-19T02:36:46.912Z,19.47
2023-02-19T03:08:29.992Z,19.57
2023-02-19T03:09:30.380Z,18.23
2023-02-19T03:10:08.163Z,18.37
2023-02-19T03:11:30.270Z,18.23
2023-02-19T03:12:24.294Z,17.93
2023-02-19T03:13:18.941Z,19.03
2023-02-19T03:14:23.139Z,18.13
2023-02-19T03:15:21.572Z,19.33
2023-02-19T03:16:18.808Z,17.40
2023-02-19T03:17:10.877Z,19.10
2023-02-19T03:18:09.300Z,19.20
2023-02-19T03:19:05.034Z,18.80
2023-02-19T03:19:44.146Z,18.13
2023-02-19T03:20:21.368Z,18.33
2023-02-19T03:21:28.805Z,18.33
2023-02-19T03:22:10.913Z,18.00
2023-02-19T03:22:46.141Z,17.60
2023-02-19T03:23:20.788Z,18.10
2023-02-19T03:24:12.527Z,18.30
2023-02-19T03:25:11.107Z,17.60
2023-02-19T03:26:01.750Z,17.47
2023-02-19T03:26:35.381Z,18.40
2023-02-19T03:27:27.240Z,18.23
2023-02-19T03:28:03.072Z,17.47
2023-02-19T03:28:59.637Z,17.77
2023-02-19T03:29:37.727Z,17.30
2023-02-19T03:30:21.209Z,18.20
2023-02-19T03:30:55.864Z,18.07
2023-02-19T03:31:32.178Z,18.03
2023-02-19T03:32:13.041Z,17.00
2023-02-19T03:32:54.883Z,17.30
2023-02-19T03:33:29.989Z,17.40
2023-02-19T03:34:08.770Z,17.70
2023-02-19T03:34:48.424Z,17.50
2023-02-19T03:35:27.576Z,17.40
2023-02-19T03:36:06.579Z,17.37
2023-02-19T03:36:44.801Z,17.30
2023-02-19T03:37:28.600Z,17.80
2023-02-19T03:38:22.121Z,17.67
2023-02-19T03:39:02.589Z,16.93
2023-02-19T03:39:44.384Z,17.67
2023-02-19T03:40:17.016Z,19.10
2023-02-19T03:41:10.909Z,18.60
2023-02-19T03:42:10.582Z,18.43
2023-02-19T03:43:12.088Z,18.57
2023-02-19T03:43:52.644Z,18.20
2023-02-19T03:44:45.688Z,17.20
2023-02-19T03:45:38.930Z,18.63
2023-02-19T03:46:42.541Z,18.10
2023-02-19T03:47:19.409Z,19.30
2023-02-19T03:48:12.523Z,18.90
2023-02-19T03:49:10.664Z,18.70
2023-02-19T03:49:45.489Z,17.73
2023-02-19T03:50:34.971Z,18.23
2023-02-19T03:51:15.259Z,18.13
2023-02-19T03:52:28.879Z,18.20
2023-02-19T03:53:52.958Z,18.67
2023-02-19T03:55:02.760Z,17.93
2023-02-19T03:55:34.442Z,18.63
2023-02-19T03:56:39.633Z,17.70
2023-02-19T03:57:45.271Z,17.67
2023-02-19T03:58:20.343Z,18.90
2023-02-19T03:59:09.175Z,18.37
2023-02-19T04:00:23.613Z,18.33
2023-02-19T04:01:13.768Z,18.93
2023-02-19T04:02:46.902Z,18.57
2023-02-19T04:04:01.693Z,17.73
2023-02-19T04:04:39.866Z,18.27
2023-02-19T04:05:17.736Z,17.80
2023-02-19T04:05:57.505Z,17.47
2023-02-19T04:06:33.190Z,18.27
2023-02-19T04:07:05.649Z,18.33
2023-02-19T04:07:45.385Z,18.23
2023-02-19T04:08:22.402Z,17.87
2023-02-19T04:08:59.488Z,18.33
2023-02-19T04:09:38.193Z,18.50
2023-02-19T04:10:10.404Z,18.47
2023-02-19T04:10:44.357Z,17.97
2023-02-19T04:11:18.824Z,17.40
2023-02-19T04:11:53.262Z,17.13
2023-02-19T04:12:25.680Z,18.57
2023-02-19T04:13:07.045Z,17.77
2023-02-19T04:14:05.490Z,18.00
2023-02-19T04:15:21.224Z,17.30
2023-02-19T04:15:58.413Z,17.87
2023-02-19T04:17:08.938Z,18.00
2023-02-19T04:17:57.530Z,18.50
2023-02-19T04:18:36.435Z,20.13
2023-02-19T04:19:13.582Z,20.43
2023-02-19T04:19:50.290Z,19.23
2023-02-19T04:20:27.674Z,18.63
2023-02-19T04:21:01.511Z,19.20
2023-02-19T04:22:12.522Z,18.60
2023-02-19T04:22:44.926Z,17.77
2023-02-19T04:23:24.184Z,16.67
2023-02-19T04:24:00.990Z,18.10
2023-02-19T04:24:41.454Z,17.83
2023-02-19T04:25:13.323Z,17.57
2023-02-19T04:25:49.962Z,17.57
2023-02-19T04:26:23.453Z,16.67
2023-02-19T04:26:56.492Z,16.43
2023-02-19T04:27:28.740Z,17.00
2023-02-19T04:28:00.741Z,17.30
2023-02-19T04:28:33.169Z,17.70
2023-02-19T04:29:05.002Z,16.33
2023-02-19T04:29:39.170Z,16.50
2023-02-19T04:30:14.732Z,17.57
2023-02-19T04:30:47.163Z,17.60
2023-02-19T04:31:19.159Z,16.90
2023-02-19T04:31:51.126Z,16.43
2023-02-19T04:32:23.038Z,16.07
2023-02-19T04:32:54.926Z,16.17
2023-02-19T04:33:26.749Z,15.73
2023-02-19T04:33:58.586Z,16.00
2023-02-19T04:34:30.397Z,16.53
2023-02-19T04:35:02.170Z,15.77
2023-02-19T04:35:33.935Z,16.17
2023-02-19T04:36:07.353Z,16.57
2023-02-19T04:36:39.323Z,16.77
2023-02-19T04:37:11.539Z,16.60
2023-02-19T04:37:43.530Z,16.20
2023-02-19T04:38:15.494Z,16.10
2023-02-19T04:38:47.269Z,15.20
2023-02-19T04:39:19.262Z,15.37
2023-02-19T04:39:51.060Z,15.70
2023-02-19T04:40:22.871Z,16.10
2023-02-19T04:40:54.748Z,15.43
2023-02-19T04:41:26.878Z,15.17
2023-02-19T04:41:58.913Z,16.27
2023-02-19T04:42:30.844Z,15.87
2023-02-19T04:43:02.700Z,15.77
2023-02-19T04:43:34.476Z,14.67
2023-02-19T04:44:06.348Z,14.97
2023-02-19T04:45:10.505Z,15.47
2023-02-19T04:45:42.354Z,15.47
2023-02-19T04:46:14.255Z,15.03
2023-02-19T04:46:46.730Z,15.73
2023-02-19T04:47:18.533Z,15.60
2023-02-19T04:47:50.386Z,14.70
2023-02-19T04:48:22.297Z,15.37
2023-02-19T04:48:54.091Z,15.33
2023-02-19T04:49:25.865Z,15.17
2023-02-19T04:49:57.670Z,15.10
2023-02-19T04:50:29.567Z,15.17
2023-02-19T04:51:06.606Z,17.97
2023-02-19T04:51:40.187Z,17.60
2023-02-19T04:52:12.867Z,15.87
2023-02-19T04:52:44.696Z,15.43
2023-02-19T04:53:16.568Z,15.53
2023-02-19T04:53:48.398Z,15.57
2023-02-19T04:54:20.299Z,17.07
2023-02-19T04:54:52.669Z,15.73
2023-02-19T04:55:24.554Z,15.57
2023-02-19T04:55:56.366Z,15.77
2023-02-19T04:56:29.798Z,16.00
2023-02-19T04:57:01.747Z,15.47
2023-02-19T04:57:33.632Z,14.90
2023-02-19T04:58:05.831Z,14.90
2023-02-19T04:58:38.486Z,16.10
2023-02-19T04:59:10.326Z,16.13
2023-02-19T04:59:42.178Z,15.83
2023-02-19T05:00:14.175Z,15.87
2023-02-19T05:00:45.997Z,16.00
2023-02-19T05:01:18.059Z,15.50
2023-02-19T05:01:49.896Z,15.40
2023-02-19T05:02:21.744Z,15.67
2023-02-19T05:02:55.826Z,16.30
2023-02-19T05:03:27.662Z,16.00
2023-02-19T05:03:59.419Z,15.93
2023-02-19T05:04:31.324Z,16.43
2023-02-19T05:05:03.882Z,15.60
2023-02-19T05:05:35.947Z,14.67
2023-02-19T05:06:11.642Z,14.93
2023-02-19T05:06:43.473Z,14.60
2023-02-19T05:07:17.428Z,15.67
2023-02-19T05:08:14.383Z,15.67
2023-02-19T05:08:46.214Z,15.73
2023-02-19T05:09:18.266Z,16.03
2023-02-19T05:09:50.186Z,16.97
2023-02-19T05:10:22.432Z,16.33
2023-02-19T05:10:59.182Z,16.57
2023-02-19T05:11:31.007Z,17.10
2023-02-19T05:12:02.830Z,15.77
2023-02-19T05:12:34.858Z,16.97
2023-02-19T05:13:07.248Z,16.40
2023-02-19T05:14:12.904Z,16.53
2023-02-19T05:14:45.110Z,16.30
2023-02-19T05:15:20.787Z,16.33
2023-02-19T05:15:57.569Z,16.97
2023-02-19T05:16:29.643Z,17.70
2023-02-19T05:17:01.423Z,18.33
2023-02-19T05:17:34.659Z,18.40
2023-02-19T05:18:06.460Z,19.00
2023-02-19T05:18:38.281Z,18.87
2023-02-19T05:19:12.957Z,19.03
2023-02-19T05:19:45.052Z,18.90
2023-02-19T05:20:17.074Z,19.10
2023-02-19T05:21:21.772Z,17.37
2023-02-19T05:24:56.726Z,17.47
2023-02-19T05:26:22.939Z,19.43
2023-02-19T05:26:54.788Z,19.97
2023-02-19T05:27:26.810Z,20.70
2023-02-19T05:28:17.142Z,21.33
2023-02-19T05:28:52.335Z,20.60
2023-02-19T05:29:24.118Z,21.00
2023-02-19T05:29:55.990Z,20.60
2023-02-19T05:30:27.826Z,18.87
2023-02-19T05:31:06.743Z,18.67
2023-02-19T05:31:38.669Z,20.30
2023-02-19T05:32:43.385Z,18.87
2023-02-19T05:33:20.551Z,19.03
2023-02-19T05:33:53.070Z,19.97
2023-02-19T05:34:26.334Z,21.03
2023-02-19T05:34:58.153Z,21.47
2023-02-19T05:35:29.999Z,20.47
2023-02-19T05:36:10.471Z,21.63
2023-02-19T05:36:42.290Z,22.53
2023-02-19T05:37:14.164Z,22.40
2023-02-19T05:37:45.940Z,21.77
2023-02-19T05:39:09.590Z,21.50
2023-02-19T05:40:39.350Z,20.90
2023-02-19T05:41:20.185Z,23.27
2023-02-19T05:41:52.101Z,24.13
2023-02-19T05:42:42.445Z,24.50
2023-02-19T05:43:14.804Z,22.13
2023-02-19T05:43:47.866Z,23.10
2023-02-19T05:44:19.841Z,22.87
2023-02-19T05:44:55.018Z,22.43
2023-02-19T05:45:27.030Z,22.60
2023-02-19T05:45:59.479Z,22.37
2023-02-19T05:47:03.656Z,21.70
2023-02-19T05:47:36.966Z,22.10
2023-02-19T05:48:12.955Z,21.03
2023-02-19T05:48:44.856Z,21.47
2023-02-19T05:49:17.118Z,21.47
2023-02-19T05:49:49.117Z,22.70
2023-02-19T05:50:20.946Z,21.70
2023-02-19T05:51:27.514Z,20.80
2023-02-19T05:52:03.483Z,20.57
2023-02-19T05:52:35.395Z,21.50
2023-02-19T05:53:07.202Z,20.47
2023-02-19T05:53:39.151Z,20.73
2023-02-19T05:54:11.052Z,21.60
2023-02-19T05:54:42.884Z,21.67
2023-02-19T05:55:15.925Z,21.27
2023-02-19T05:55:47.694Z,21.47
2023-02-19T05:56:40.626Z,20.73
2023-02-19T05:57:48.984Z,21.33
2023-02-19T05:58:20.813Z,23.20
2023-02-19T05:58:54.019Z,21.80
2023-02-19T05:59:26.986Z,22.63
2023-02-19T06:00:33.374Z,21.07
2023-02-19T06:01:05.306Z,21.80
2023-02-19T06:01:37.277Z,23.93
2023-02-19T06:02:41.882Z,36.73
2023-02-19T06:03:13.697Z,36.20
2023-02-19T06:03:45.599Z,37.83
2023-02-19T06:04:20.111Z,37.23
2023-02-19T06:04:52.092Z,31.47
2023-02-19T06:05:24.348Z,26.10
2023-02-19T06:05:56.136Z,25.50
2023-02-19T06:06:28.254Z,24.67
2023-02-19T06:07:00.050Z,23.47
2023-02-19T06:07:33.149Z,21.73
2023-02-19T06:08:05.166Z,22.20
2023-02-19T06:08:40.427Z,22.47
2023-02-19T06:09:15.339Z,22.03
2023-02-19T06:09:51.868Z,22.67
2023-02-19T06:10:28.365Z,23.27
2023-02-19T06:11:03.224Z,23.70
2023-02-19T06:11:35.360Z,23.67
2023-02-19T06:12:08.408Z,22.90
2023-02-19T06:12:40.337Z,24.73
2023-02-19T06:13:12.136Z,23.77
2023-02-19T06:14:17.051Z,23.43
2023-02-19T06:14:49.517Z,24.57
2023-02-19T06:15:22.155Z,24.97
2023-02-19T06:15:54.136Z,25.57
2023-02-19T06:16:26.072Z,25.10
2023-02-19T06:16:57.996Z,25.73
2023-02-19T06:17:29.842Z,26.43
2023-02-19T06:18:02.092Z,25.37
2023-02-19T06:18:34.109Z,25.50
2023-02-19T06:19:06.033Z,24.60
2023-02-19T06:19:37.880Z,23.83
2023-02-19T06:20:10.036Z,24.43
2023-02-19T06:20:43.410Z,25.00
2023-02-19T06:21:16.802Z,25.17
2023-02-19T06:21:51.169Z,25.90
2023-02-19T06:22:55.932Z,23.87
2023-02-19T06:23:30.308Z,23.33
2023-02-19T06:24:09.567Z,22.73
2023-02-19T06:24:41.402Z,22.50
2023-02-19T06:25:13.326Z,25.50
2023-02-19T06:25:45.132Z,30.20
2023-02-19T06:26:18.292Z,30.63
2023-02-19T06:26:50.057Z,28.03
2023-02-19T06:27:23.329Z,26.50
2023-02-19T06:27:55.261Z,25.77
2023-02-19T06:28:27.074Z,26.43
2023-02-19T06:28:58.908Z,24.37
2023-02-19T06:29:32.624Z,23.07
2023-02-19T06:30:04.683Z,22.97
2023-02-19T06:30:37.290Z,22.23
2023-02-19T06:31:11.552Z,21.17
2023-02-19T06:32:02.157Z,21.80
2023-02-19T06:32:34.003Z,23.77
2023-02-19T06:33:05.876Z,22.37
2023-02-19T06:33:40.634Z,22.70
2023-02-19T06:34:12.465Z,21.70
2023-02-19T06:34:44.279Z,21.07
2023-02-19T06:35:16.188Z,22.43
2023-02-19T06:35:48.031Z,22.30
2023-02-19T06:36:21.709Z,22.00
2023-02-19T06:36:53.818Z,22.90
2023-02-19T06:38:03.469Z,22.83
2023-02-19T06:38:35.315Z,22.70
2023-02-19T06:39:07.431Z,21.87
2023-02-19T06:39:39.272Z,22.00
2023-02-19T06:40:11.148Z,22.33
2023-02-19T06:41:15.607Z,22.13
2023-02-19T06:41:47.566Z,22.00
2023-02-19T06:42:52.371Z,22.57
2023-02-19T06:43:24.179Z,23.33
2023-02-19T06:43:58.283Z,24.10
2023-02-19T06:44:30.184Z,24.20
2023-02-19T06:45:01.957Z,24.53
2023-02-19T06:45:33.722Z,24.10
2023-02-19T06:46:07.017Z,25.87
2023-02-19T06:46:38.970Z,27.10
2023-02-19T06:47:10.826Z,27.97
2023-02-19T06:47:42.789Z,27.40
2023-02-19T06:48:14.615Z,28.20
2023-02-19T06:48:46.573Z,26.57
2023-02-19T06:49:18.367Z,26.30
2023-02-19T06:49:50.250Z,26.90
2023-02-19T06:50:22.263Z,27.10
2023-02-19T06:50:54.309Z,25.33
2023-02-19T06:51:28.998Z,24.93
2023-02-19T06:52:02.062Z,25.57
2023-02-19T06:52:33.983Z,25.57
2023-02-19T06:53:05.875Z,25.40
2023-02-19T06:53:37.712Z,26.30
2023-02-19T06:54:09.617Z,27.97
2023-02-19T06:54:41.853Z,32.67
2023-02-19T06:56:02.528Z,28.30
2023-02-19T06:56:39.609Z,27.17
2023-02-19T06:57:44.281Z,27.37
2023-02-19T06:58:16.051Z,27.07
2023-02-19T06:58:48.254Z,26.40
2023-02-19T06:59:20.117Z,26.87
2023-02-19T06:59:52.013Z,26.33
2023-02-19T07:00:57.197Z,28.67
2023-02-19T07:01:34.365Z,28.10
2023-02-19T07:02:06.202Z,27.60
2023-02-19T07:02:38.009Z,30.00
2023-02-19T07:03:09.963Z,30.43
2023-02-19T07:03:41.863Z,28.43
2023-02-19T07:04:13.769Z,27.90
2023-02-19T07:04:45.630Z,26.60
2023-02-19T07:05:52.064Z,26.90
2023-02-19T07:06:27.073Z,32.67
2023-02-19T07:07:00.370Z,36.93
2023-02-19T07:07:35.846Z,30.40
2023-02-19T07:08:08.710Z,37.83
2023-02-19T07:08:40.680Z,35.53
2023-02-19T07:09:50.512Z,32.53
2023-02-19T07:10:22.262Z,32.93
2023-02-19T07:11:35.172Z,29.93
2023-02-19T07:12:09.879Z,26.73
2023-02-19T07:12:45.277Z,27.37
2023-02-19T07:13:17.068Z,29.60
2023-02-19T07:13:48.937Z,31.57
2023-02-19T07:14:21.673Z,28.43
2023-02-19T07:14:53.417Z,25.57
2023-02-19T07:15:25.187Z,27.50
2023-02-19T07:16:08.137Z,26.77
2023-02-19T07:17:12.431Z,24.00
2023-02-19T07:17:44.354Z,24.30
2023-02-19T07:18:47.778Z,24.17
2023-02-19T07:19:21.516Z,25.20
2023-02-19T07:19:53.418Z,24.87
2023-02-19T07:20:25.200Z,24.33
2023-02-19T07:21:32.870Z,24.63
2023-02-19T07:22:05.356Z,24.47
2023-02-19T07:22:37.293Z,24.87
2023-02-19T07:23:09.266Z,24.90
2023-02-19T07:23:42.707Z,26.07
2023-02-19T07:24:14.605Z,25.23
2023-02-19T07:24:47.942Z,24.57
2023-02-19T07:25:52.249Z,24.43
2023-02-19T07:26:24.824Z,24.53
2023-02-19T07:26:56.924Z,25.77
2023-02-19T07:27:32.421Z,24.20
2023-02-19T07:28:06.396Z,25.87
2023-02-19T07:28:38.624Z,26.23
2023-02-19T07:29:10.572Z,25.57
2023-02-19T07:29:42.401Z,25.27
2023-02-19T07:30:46.568Z,25.33
2023-02-19T07:31:21.170Z,25.20
2023-02-19T07:31:53.108Z,24.77
2023-02-19T07:32:26.486Z,24.20
2023-02-19T07:32:58.350Z,24.07
2023-02-19T07:33:30.672Z,24.83
2023-02-19T07:34:02.500Z,25.20
2023-02-19T07:34:34.393Z,25.13
2023-02-19T07:35:06.607Z,25.10
2023-02-19T07:35:38.962Z,25.13
2023-02-19T07:36:11.552Z,25.73
2023-02-19T07:36:44.402Z,25.43
2023-02-19T07:37:16.485Z,24.30
2023-02-19T07:37:48.305Z,24.47
2023-02-19T07:38:21.824Z,25.27
2023-02-19T07:38:57.698Z,25.03
2023-02-19T07:39:29.761Z,24.23
2023-02-19T07:40:01.801Z,24.23
2023-02-19T07:40:34.688Z,23.33
2023-02-19T07:41:39.902Z,23.97
2023-02-19T07:42:11.852Z,24.13
2023-02-19T07:42:43.653Z,23.67
2023-02-19T07:43:15.518Z,24.63
2023-02-19T07:43:47.417Z,23.70
2023-02-19T07:44:19.365Z,24.30
2023-02-19T07:44:51.269Z,24.33
2023-02-19T07:45:23.192Z,23.23
2023-02-19T07:45:55.553Z,22.93
2023-02-19T07:46:27.481Z,22.67
2023-02-19T07:46:59.542Z,23.10
2023-02-19T07:47:31.494Z,23.43
2023-02-19T07:48:03.401Z,23.70
2023-02-19T07:48:36.707Z,21.83
2023-02-19T07:49:08.510Z,22.87
2023-02-19T07:49:40.409Z,22.97
2023-02-19T07:50:13.977Z,21.93
2023-02-19T07:50:57.387Z,23.30
2023-02-19T07:51:29.158Z,23.03
2023-02-19T07:52:01.097Z,23.00
2023-02-19T07:52:34.132Z,22.63
2023-02-19T07:53:06.356Z,22.90
2023-02-19T07:53:38.150Z,22.70
2023-02-19T07:54:09.974Z,22.67
2023-02-19T07:54:41.826Z,22.37
2023-02-19T07:55:13.759Z,23.43
2023-02-19T07:55:45.685Z,23.03
2023-02-19T07:56:18.827Z,22.93
2023-02-19T07:56:50.648Z,22.67
2023-02-19T07:57:22.443Z,22.17
2023-02-19T07:57:54.249Z,22.73
2023-02-19T07:58:26.044Z,21.90
2023-02-19T07:58:57.874Z,21.80
2023-02-19T07:59:29.624Z,21.70
2023-02-19T08:00:01.691Z,22.80
2023-02-19T08:00:33.614Z,22.77
2023-02-19T08:01:19.562Z,22.23
2023-02-19T08:02:09.787Z,21.53
2023-02-19T08:03:00.378Z,22.43
2023-02-19T08:03:32.635Z,23.30
2023-02-19T08:04:04.573Z,22.00
2023-02-19T08:04:36.411Z,22.57
2023-02-19T08:05:08.326Z,22.67
2023-02-19T08:05:42.668Z,22.67
2023-02-19T08:06:14.450Z,21.67
2023-02-19T08:06:46.256Z,23.47
2023-02-19T08:07:18.103Z,22.90
2023-02-19T08:07:49.898Z,23.50
2023-02-19T08:08:21.732Z,22.50
2023-02-19T08:08:55.148Z,23.40
2023-02-19T08:09:28.098Z,24.77
2023-02-19T08:10:20.259Z,23.77
2023-02-19T08:11:10.796Z,23.23
2023-02-19T08:12:01.081Z,23.50
2023-02-19T08:12:51.571Z,23.80
2023-02-19T08:13:25.460Z,23.07
2023-02-19T08:13:57.225Z,22.90
2023-02-19T08:14:29.519Z,22.80
2023-02-19T08:15:01.274Z,22.97
2023-02-19T08:15:33.317Z,23.13
2023-02-19T08:16:17.054Z,24.27
2023-02-19T08:16:53.296Z,24.33
2023-02-19T08:17:25.242Z,24.83
2023-02-19T08:17:57.057Z,23.60
2023-02-19T08:18:31.579Z,22.00
2023-02-19T08:19:03.506Z,23.27
2023-02-19T08:19:35.390Z,23.53
2023-02-19T08:20:08.545Z,23.10
2023-02-19T08:20:40.927Z,23.10
2023-02-19T08:21:13.987Z,23.37
2023-02-19T08:21:45.752Z,22.83
2023-02-19T08:22:17.558Z,22.53
2023-02-19T08:22:49.296Z,22.80
2023-02-19T08:23:21.685Z,23.37
2023-02-19T08:23:53.504Z,23.77
2023-02-19T08:24:25.330Z,22.37
2023-02-19T08:24:57.113Z,21.10
2023-02-19T08:25:29.557Z,23.20
2023-02-19T08:26:02.838Z,22.60
2023-02-19T08:26:35.108Z,22.70
2023-02-19T08:27:07.496Z,23.43
2023-02-19T08:27:39.268Z,23.70
2023-02-19T08:28:12.255Z,22.73
2023-02-19T08:28:44.274Z,23.17
2023-02-19T08:29:16.102Z,21.97
2023-02-19T08:29:47.904Z,22.73
2023-02-19T08:30:19.744Z,24.20
2023-02-19T08:30:51.799Z,23.87
2023-02-19T08:31:23.816Z,23.90
2023-02-19T08:31:55.773Z,24.53
2023-02-19T08:32:27.608Z,25.40
2023-02-19T08:33:02.217Z,25.17
2023-02-19T08:33:35.377Z,24.30
2023-02-19T08:34:07.172Z,23.17
2023-02-19T08:34:38.908Z,24.43